createdAt,value
2017-11-05T00:01:29.944Z,80.74
2017-11-05T00:04:04.456Z,80.96
2017-11-05T00:06:39.058Z,80.94
2017-11-05T00:09:13.598Z,80.50
2017-11-05T00:11:48.093Z,80.85
2017-11-05T00:14:22.643Z,81.47
2017-11-05T00:16:57.151Z,81.41
2017-11-05T00:19:31.627Z,81.24
2017-11-05T00:22:06.047Z,81.91
2017-11-05T00:24:40.482Z,81.89
2017-11-05T00:27:15.087Z,81.95
2017-11-05T00:29:49.486Z,81.92
2017-11-05T00:32:23.999Z,81.87
2017-11-05T00:34:58.398Z,81.86
2017-11-05T00:37:32.884Z,81.78
2017-11-05T00:40:10.790Z,82.17
2017-11-05T00:42:45.316Z,82.33
2017-11-05T00:45:19.846Z,82.54
2017-11-05T00:47:54.470Z,82.64
2017-11-05T00:50:28.927Z,82.72
2017-11-05T00:53:03.634Z,82.92
2017-11-05T00:55:38.075Z,83.01
2017-11-05T00:58:12.500Z,82.83
2017-11-05T01:00:46.899Z,82.73
2017-11-05T01:03:21.549Z,82.49
2017-11-05T01:05:56.090Z,82.46
2017-11-05T01:08:30.627Z,82.69
2017-11-05T01:11:05.147Z,82.57
2017-11-05T01:13:39.813Z,82.89
2017-11-05T01:16:14.344Z,83.32
2017-11-05T01:18:48.966Z,83.19
2017-11-05T01:21:23.380Z,83.04
2017-11-05T01:23:57.969Z,83.05
2017-11-05T01:26:32.393Z,83.25
2017-11-05T01:29:07.074Z,83.12
2017-11-05T01:31:41.605Z,83.13
2017-11-05T01:34:16.164Z,83.10
2017-11-05T01:36:50.588Z,83.49
2017-11-05T01:39:25.031Z,83.45
2017-11-05T01:41:59.459Z,82.92
2017-11-05T01:44:34.015Z,83.11
2017-11-05T01:47:09.135Z,83.48
2017-11-05T01:49:43.710Z,83.55
2017-11-05T01:52:17.903Z,83.52
2017-11-05T01:54:52.627Z,83.39
2017-11-05T01:57:27.031Z,83.00
2017-11-05T02:00:01.475Z,82.90
2017-11-05T02:02:35.682Z,82.95
2017-11-05T02:05:14.943Z,83.01
2017-11-05T02:07:49.230Z,82.79
2017-11-05T02:10:23.350Z,82.60
2017-11-05T02:12:58.569Z,82.70
2017-11-05T02:15:33.688Z,82.89
2017-11-05T02:18:08.154Z,83.01
2017-11-05T02:20:42.279Z,82.93
2017-11-05T02:23:16.529Z,82.93
2017-11-05T02:25:51.726Z,83.10
2017-11-05T02:28:25.997Z,83.01
2017-11-05T02:31:00.058Z,83.04
2017-11-05T02:33:34.461Z,82.84
2017-11-05T02:36:08.608Z,82.84
2017-11-05T02:38:43.158Z,83.12
2017-11-05T02:41:17.598Z,82.78
2017-11-05T02:43:52.130Z,83.00
2017-11-05T02:46:26.243Z,83.62
2017-11-05T02:49:00.421Z,83.70
2017-11-05T02:51:34.620Z,83.97
2017-11-05T02:54:09.132Z,83.40
2017-11-05T02:56:43.747Z,83.37
2017-11-05T02:59:17.960Z,83.41
2017-11-05T03:01:52.385Z,83.46
2017-11-05T03:04:27.735Z,83.31
2017-11-05T03:07:01.972Z,83.41
2017-11-05T03:09:36.014Z,83.49
2017-11-05T03:12:10.156Z,83.60
2017-11-05T03:14:44.257Z,83.13
2017-11-05T03:17:18.350Z,83.22
2017-11-05T03:19:52.391Z,83.38
2017-11-05T03:22:26.451Z,82.98
2017-11-05T03:25:00.691Z,83.35
2017-11-05T03:27:34.821Z,83.57
2017-11-05T03:30:08.892Z,83.38
2017-11-05T03:32:43.385Z,83.15
2017-11-05T03:35:17.497Z,82.92
2017-11-05T03:37:51.694Z,83.17
2017-11-05T03:40:25.770Z,83.15
2017-11-05T03:42:59.911Z,83.27
2017-11-05T03:45:34.049Z,82.97
2017-11-05T03:48:08.272Z,83.36
2017-11-05T03:50:42.395Z,83.77
2017-11-05T03:53:16.462Z,83.09
2017-11-05T03:55:50.506Z,82.87
2017-11-05T03:58:24.552Z,83.17
2017-11-05T04:00:58.834Z,83.11
2017-11-05T04:03:33.256Z,83.09
2017-11-05T04:06:07.290Z,84.31
2017-11-05T04:08:41.583Z,84.91
2017-11-05T04:11:16.045Z,84.18
2017-11-05T04:13:50.551Z,83.96
2017-11-05T04:16:25.182Z,84.04
2017-11-05T04:18:59.436Z,84.77
2017-11-05T04:21:33.478Z,85.57
2017-11-05T04:24:07.856Z,85.48
2017-11-05T04:26:42.514Z,85.56
2017-11-05T04:29:17.096Z,85.33
2017-11-05T04:31:51.238Z,85.71
2017-11-05T04:34:25.287Z,85.87
2017-11-05T04:36:59.415Z,85.66
2017-11-05T04:39:33.550Z,84.91
2017-11-05T04:42:08.023Z,83.87
2017-11-05T04:44:42.703Z,82.93
2017-11-05T04:47:17.606Z,83.40
2017-11-05T04:49:51.968Z,84.02
2017-11-05T04:52:26.023Z,84.18
2017-11-05T04:55:00.609Z,84.02
2017-11-05T04:57:34.724Z,83.96
2017-11-05T05:00:12.146Z,84.14
2017-11-05T05:02:46.369Z,84.39
2017-11-05T05:05:20.870Z,85.15
2017-11-05T05:07:55.253Z,85.53
2017-11-05T05:10:29.385Z,85.37
2017-11-05T05:13:04.058Z,84.72
2017-11-05T05:15:38.158Z,84.66
2017-11-05T05:18:12.421Z,85.18
2017-11-05T05:20:46.550Z,85.06
2017-11-05T05:23:20.957Z,84.98
2017-11-05T05:25:55.432Z,84.78
2017-11-05T05:28:29.983Z,84.38
2017-11-05T05:31:04.087Z,84.25
2017-11-05T05:33:38.231Z,84.28
2017-11-05T05:36:12.382Z,84.05
2017-11-05T05:38:46.547Z,84.19
2017-11-05T05:41:21.035Z,83.29
2017-11-05T05:43:55.287Z,83.67
2017-11-05T05:46:30.152Z,83.79
2017-11-05T05:49:04.696Z,83.61
2017-11-05T05:51:38.798Z,83.58
2017-11-05T05:54:13.222Z,83.99
2017-11-05T05:56:47.718Z,83.64
2017-11-05T05:59:21.944Z,83.89
2017-11-05T06:01:56.020Z,82.85
2017-11-05T06:04:30.124Z,82.77
2017-11-05T06:07:04.351Z,83.30
2017-11-05T06:09:38.777Z,83.34
2017-11-05T06:12:12.991Z,83.53
2017-11-05T06:14:47.151Z,83.88
2017-11-05T06:17:22.597Z,83.50
2017-11-05T06:19:56.894Z,83.53
2017-11-05T06:22:30.927Z,83.73
2017-11-05T06:25:13.767Z,83.81
2017-11-05T06:27:47.862Z,83.87
2017-11-05T06:30:22.098Z,83.73
2017-11-05T06:32:56.208Z,82.95
2017-11-05T06:35:30.935Z,82.35
2017-11-05T06:38:05.048Z,83.19
2017-11-05T06:40:39.242Z,83.47
2017-11-05T06:43:13.770Z,83.37
2017-11-05T06:45:47.849Z,83.12
2017-11-05T06:48:22.137Z,83.06
2017-11-05T06:50:56.255Z,83.39
2017-11-05T06:53:30.399Z,83.34
2017-11-05T06:56:04.843Z,82.89
2017-11-05T06:58:39.458Z,83.06
2017-11-05T07:01:13.678Z,82.03
2017-11-05T07:03:47.828Z,81.77
2017-11-05T07:06:21.967Z,82.08
2017-11-05T07:08:56.546Z,82.83
2017-11-05T07:11:30.412Z,82.85
2017-11-05T07:14:04.572Z,82.81
2017-11-05T07:16:38.767Z,82.93
2017-11-05T07:19:12.820Z,82.64
2017-11-05T07:21:47.522Z,82.87
2017-11-05T07:24:21.731Z,82.80
2017-11-05T07:26:55.790Z,82.75
2017-11-05T07:29:30.054Z,82.46
2017-11-05T07:32:04.223Z,82.51
2017-11-05T07:34:38.462Z,82.66
2017-11-05T07:37:13.103Z,82.90
2017-11-05T07:39:47.330Z,82.52
2017-11-05T07:42:21.958Z,82.93
2017-11-05T07:44:56.258Z,82.90
2017-11-05T07:47:30.461Z,83.42
2017-11-05T07:50:07.389Z,83.19
2017-11-05T07:52:41.577Z,83.76
2017-11-05T07:55:16.106Z,83.41
2017-11-05T07:57:50.929Z,83.40
2017-11-05T08:00:25.248Z,83.63
2017-11-05T08:03:01.891Z,83.66
2017-11-05T08:05:36.407Z,82.57
2017-11-05T08:08:10.655Z,82.35
2017-11-05T08:10:45.027Z,82.02
2017-11-05T08:13:19.218Z,82.73
2017-11-05T08:15:53.255Z,83.09
2017-11-05T08:18:27.440Z,83.18
2017-11-05T08:21:01.522Z,83.47
2017-11-05T08:23:35.686Z,83.50
2017-11-05T08:26:10.274Z,83.45
2017-11-05T08:28:44.984Z,84.03
2017-11-05T08:31:19.536Z,84.38
2017-11-05T08:33:53.962Z,84.39
2017-11-05T08:36:28.470Z,84.45
2017-11-05T08:39:02.883Z,84.68
2017-11-05T08:41:36.950Z,84.40
2017-11-05T08:44:10.991Z,84.40
2017-11-05T08:46:45.407Z,84.26
2017-11-05T08:49:19.986Z,84.55
2017-11-05T08:51:54.538Z,84.39
2017-11-05T08:54:29.004Z,83.96
2017-11-05T08:57:03.451Z,83.90
2017-11-05T08:59:37.834Z,83.57
2017-11-05T09:02:12.107Z,83.25
2017-11-05T09:04:46.716Z,82.95
2017-11-05T09:07:21.083Z,83.07
2017-11-05T09:09:55.682Z,82.89
2017-11-05T09:12:30.355Z,82.76
2017-11-05T09:15:11.542Z,82.22
2017-11-05T09:17:46.108Z,82.25
2017-11-05T09:20:21.219Z,82.25
2017-11-05T09:22:55.883Z,82.07
2017-11-05T09:25:29.967Z,81.93
2017-11-05T09:28:04.586Z,81.72
2017-11-05T09:30:39.084Z,81.65
2017-11-05T09:33:13.239Z,81.57
2017-11-05T09:35:47.628Z,81.40
2017-11-05T09:38:22.255Z,81.07
2017-11-05T09:40:56.669Z,81.26
2017-11-05T09:43:31.277Z,81.15
2017-11-05T09:46:05.870Z,81.16
2017-11-05T09:48:40.415Z,80.67
2017-11-05T09:51:14.927Z,80.76
2017-11-05T09:53:49.594Z,80.38
2017-11-05T09:56:24.014Z,80.44
2017-11-05T09:58:58.599Z,80.73
2017-11-05T10:01:33.079Z,80.90
2017-11-05T10:04:07.699Z,80.70
2017-11-05T10:06:42.117Z,80.26
2017-11-05T10:09:16.775Z,80.13
2017-11-05T10:11:51.256Z,79.66
2017-11-05T10:14:25.807Z,78.74
2017-11-05T10:17:00.230Z,79.26
2017-11-05T10:19:34.875Z,79.05
2017-11-05T10:22:09.282Z,78.85
2017-11-05T10:24:43.877Z,78.80
2017-11-05T10:27:18.286Z,78.51
2017-11-05T10:29:52.843Z,78.53
2017-11-05T10:32:27.316Z,78.85
2017-11-05T10:35:01.843Z,78.49
2017-11-05T10:37:36.419Z,77.97
2017-11-05T10:40:11.587Z,77.59
2017-11-05T10:42:46.076Z,77.42
2017-11-05T10:45:20.522Z,77.00
2017-11-05T10:47:54.942Z,77.00
2017-11-05T10:50:29.942Z,76.61
2017-11-05T10:53:04.464Z,76.74
2017-11-05T10:55:38.907Z,76.70
2017-11-05T10:58:13.532Z,75.98
2017-11-05T11:00:47.965Z,75.52
2017-11-05T11:03:22.490Z,74.29
2017-11-05T11:05:56.986Z,74.78
2017-11-05T11:08:31.542Z,72.15
2017-11-05T11:11:05.984Z,100.00
2017-11-05T11:13:40.523Z,100.00
2017-11-05T11:16:14.963Z,100.00
2017-11-05T11:18:49.534Z,100.00
2017-11-05T11:21:23.959Z,100.00
2017-11-05T11:23:58.385Z,100.00
2017-11-05T11:26:32.863Z,100.00
2017-11-05T11:29:07.299Z,100.00
2017-11-05T11:31:41.746Z,100.00
2017-11-05T11:34:16.274Z,100.00
2017-11-05T11:36:50.797Z,100.00
2017-11-05T11:39:25.452Z,100.00
2017-11-05T11:41:59.941Z,100.00
2017-11-05T11:44:34.508Z,100.00
2017-11-05T11:47:09.408Z,100.00
2017-11-05T11:49:43.950Z,100.00
2017-11-05T11:52:18.471Z,100.00
2017-11-05T11:54:53.002Z,100.00
2017-11-05T11:57:27.473Z,100.00
2017-11-05T12:00:02.098Z,100.00
2017-11-05T12:02:36.198Z,100.00
2017-11-05T12:05:16.094Z,100.00
2017-11-05T12:07:50.720Z,100.00
2017-11-05T12:10:24.984Z,100.00
2017-11-05T12:12:59.413Z,100.00
2017-11-05T12:15:33.863Z,100.00
2017-11-05T12:18:08.463Z,100.00
2017-11-05T12:20:42.927Z,100.00
2017-11-05T12:23:17.338Z,100.00
2017-11-05T12:25:51.946Z,100.00
2017-11-05T12:28:26.564Z,100.00
2017-11-05T12:31:01.052Z,100.00
2017-11-05T12:33:35.485Z,100.00
2017-11-05T12:36:09.652Z,100.00
2017-11-05T12:38:44.290Z,100.00
2017-11-05T12:41:18.780Z,100.00
2017-11-05T12:43:53.442Z,100.00
2017-11-05T12:46:28.248Z,100.00
2017-11-05T12:49:02.792Z,100.00
2017-11-05T12:51:37.267Z,100.00
2017-11-05T12:54:11.839Z,100.00
2017-11-05T12:56:46.289Z,100.00
2017-11-05T12:59:20.836Z,100.00
2017-11-05T13:01:55.668Z,100.00
2017-11-05T13:04:30.208Z,100.00
2017-11-05T13:07:04.344Z,100.00
2017-11-05T13:09:39.008Z,100.00
2017-11-05T13:12:13.447Z,100.00
2017-11-05T13:14:47.896Z,100.00
2017-11-05T13:17:22.347Z,100.00
2017-11-05T13:19:56.811Z,100.00
2017-11-05T13:22:31.338Z,100.00
2017-11-05T13:25:14.718Z,100.00
2017-11-05T13:27:49.114Z,100.00
2017-11-05T13:30:23.638Z,100.00
2017-11-05T13:32:58.072Z,100.00
2017-11-05T13:35:32.474Z,100.00
2017-11-05T13:38:06.916Z,100.00
2017-11-05T13:40:41.714Z,100.00
2017-11-05T13:43:16.584Z,100.00
2017-11-05T13:45:51.068Z,100.00
2017-11-05T13:48:25.814Z,100.00
2017-11-05T13:51:00.284Z,100.00
2017-11-05T13:53:34.827Z,100.00
2017-11-05T13:56:09.471Z,100.00
2017-11-05T13:58:44.096Z,100.00
2017-11-05T14:01:18.175Z,100.00
2017-11-05T14:03:52.721Z,100.00
2017-11-05T14:06:27.138Z,100.00
2017-11-05T14:09:01.710Z,100.00
2017-11-05T14:11:36.240Z,100.00
2017-11-05T14:14:10.865Z,100.00
2017-11-05T14:16:45.110Z,100.00
2017-11-05T14:19:19.642Z,100.00
2017-11-05T14:21:53.787Z,100.00
2017-11-05T14:24:28.338Z,100.00
2017-11-05T14:27:02.771Z,100.00
2017-11-05T14:29:37.372Z,100.00
2017-11-05T14:32:11.775Z,100.00
2017-11-05T14:34:46.523Z,100.00
2017-11-05T14:37:20.947Z,100.00
2017-11-05T14:39:55.443Z,100.00
2017-11-05T14:42:29.951Z,100.00
2017-11-05T14:47:45.036Z,100.00
2017-11-05T14:50:18.914Z,100.00
2017-11-05T14:52:53.458Z,100.00
2017-11-05T14:55:27.919Z,100.00
2017-11-05T14:58:02.186Z,100.00
2017-11-05T15:00:36.389Z,100.00
2017-11-05T15:03:10.873Z,100.00
2017-11-05T15:05:45.194Z,100.00
2017-11-05T15:08:19.790Z,100.00
2017-11-05T15:10:54.230Z,100.00
2017-11-05T15:13:28.833Z,100.00
2017-11-05T15:16:03.242Z,100.00
2017-11-05T15:18:38.623Z,100.00
2017-11-05T15:21:13.223Z,100.00
2017-11-05T15:23:47.814Z,100.00
2017-11-05T15:26:22.362Z,100.00
2017-11-05T15:28:57.023Z,100.00
2017-11-05T15:31:31.438Z,100.00
2017-11-05T15:34:05.700Z,100.00
2017-11-05T15:36:40.128Z,100.00
2017-11-05T15:39:14.361Z,100.00
2017-11-05T15:41:48.877Z,100.00
2017-11-05T15:44:23.399Z,100.00
2017-11-05T15:46:57.876Z,100.00
2017-11-05T15:49:32.428Z,100.00
2017-11-05T15:52:06.666Z,100.00
2017-11-05T15:54:41.080Z,100.00
2017-11-05T15:57:15.636Z,100.00
2017-11-05T15:59:50.271Z,100.00
2017-11-05T16:02:24.794Z,100.00
2017-11-05T16:04:59.380Z,100.00
2017-11-05T16:07:33.845Z,100.00
2017-11-05T16:10:13.471Z,100.00
2017-11-05T16:12:48.360Z,100.00
2017-11-05T16:15:22.894Z,100.00
2017-11-05T16:17:57.523Z,100.00
2017-11-05T16:20:31.943Z,100.00
2017-11-05T16:23:06.406Z,100.00
2017-11-05T16:25:41.091Z,100.00
2017-11-05T16:28:15.667Z,100.00
2017-11-05T16:30:50.315Z,100.00
2017-11-05T16:33:24.782Z,100.00
2017-11-05T16:35:59.223Z,100.00
2017-11-05T16:38:34.147Z,100.00
2017-11-05T16:41:09.274Z,100.00
2017-11-05T16:43:43.824Z,100.00
2017-11-05T16:46:18.265Z,100.00
2017-11-05T16:48:52.891Z,100.00
2017-11-05T16:51:28.914Z,100.00
2017-11-05T16:54:03.521Z,100.00
2017-11-05T16:56:38.021Z,100.00
2017-11-05T16:59:12.523Z,100.00
2017-11-05T17:01:47.015Z,100.00
2017-11-05T17:04:21.716Z,100.00
2017-11-05T17:06:55.837Z,100.00
2017-11-05T17:09:30.408Z,100.00
2017-11-05T17:12:04.823Z,100.00
2017-11-05T17:14:39.386Z,100.00
2017-11-05T17:17:14.324Z,100.00
2017-11-05T17:19:48.876Z,100.00
2017-11-05T17:22:23.365Z,100.00
2017-11-05T17:24:57.948Z,100.00
2017-11-05T17:27:32.411Z,100.00
2017-11-05T17:30:13.902Z,100.00
2017-11-05T17:32:48.529Z,100.00
2017-11-05T17:35:22.373Z,100.00
2017-11-05T17:37:57.088Z,100.00
2017-11-05T17:40:31.534Z,100.00
2017-11-05T17:43:06.178Z,100.00
2017-11-05T17:45:40.631Z,100.00
2017-11-05T17:48:15.262Z,100.00
2017-11-05T17:50:49.747Z,100.00
2017-11-05T17:53:24.179Z,100.00
2017-11-05T17:55:58.730Z,100.00
2017-11-05T17:58:33.324Z,100.00
2017-11-05T18:01:07.796Z,100.00
2017-11-05T18:03:42.454Z,100.00
2017-11-05T18:06:16.908Z,100.00
2017-11-05T18:08:51.452Z,71.86
2017-11-05T18:11:25.947Z,71.73
2017-11-05T18:14:00.523Z,71.69
2017-11-05T18:16:35.006Z,71.54
2017-11-05T18:19:09.561Z,71.37
2017-11-05T18:21:44.030Z,71.29
2017-11-05T18:24:18.628Z,71.07
2017-11-05T18:26:53.022Z,70.78
2017-11-05T18:29:27.578Z,70.91
2017-11-05T18:32:02.070Z,70.82
2017-11-05T18:34:36.691Z,71.02
2017-11-05T18:37:11.084Z,71.46
2017-11-05T18:39:45.476Z,72.21
2017-11-05T18:42:19.951Z,73.26
2017-11-05T18:44:54.555Z,74.31
2017-11-05T18:47:29.158Z,74.63
2017-11-05T18:52:44.486Z,72.90
2017-11-05T18:55:18.878Z,72.27
2017-11-05T18:57:53.481Z,73.32
2017-11-05T19:00:27.622Z,73.11
2017-11-05T19:03:02.027Z,71.60
2017-11-05T19:05:37.021Z,70.47
2017-11-05T19:08:11.555Z,70.46
2017-11-05T19:10:45.963Z,70.00
2017-11-05T19:13:20.547Z,69.87
2017-11-05T19:15:55.298Z,69.80
2017-11-05T19:18:29.750Z,69.35
2017-11-05T19:21:04.226Z,69.18
2017-11-05T19:23:38.699Z,68.98
2017-11-05T19:26:13.085Z,68.81
2017-11-05T19:28:47.643Z,68.46
2017-11-05T19:31:22.038Z,68.72
2017-11-05T19:33:56.717Z,68.76
2017-11-05T19:36:32.032Z,68.71
2017-11-05T19:39:06.603Z,68.75
2017-11-05T19:41:40.996Z,68.81
2017-11-05T19:44:15.503Z,68.87
2017-11-05T19:46:49.965Z,68.71
2017-11-05T19:49:24.537Z,68.96
2017-11-05T19:51:58.910Z,68.84
2017-11-05T19:54:33.223Z,68.76
2017-11-05T19:57:07.725Z,68.82
2017-11-05T19:59:45.321Z,68.70
2017-11-05T20:02:19.739Z,68.84
2017-11-05T20:04:54.255Z,68.68
2017-11-05T20:07:28.646Z,68.75
2017-11-05T20:10:10.327Z,69.11
2017-11-05T20:12:44.862Z,69.11
2017-11-05T20:15:19.286Z,69.24
2017-11-05T20:17:54.067Z,68.81
2017-11-05T20:20:28.531Z,69.56
2017-11-05T20:23:03.038Z,69.36
2017-11-05T20:25:37.474Z,69.38
2017-11-05T20:28:12.154Z,70.20
2017-11-05T20:30:46.570Z,70.01
2017-11-05T20:33:21.990Z,69.85
2017-11-05T20:35:56.587Z,69.37
2017-11-05T20:38:31.181Z,69.43
2017-11-05T20:41:05.591Z,69.25
2017-11-05T20:43:40.214Z,68.65
2017-11-05T20:46:14.711Z,69.33
2017-11-05T20:48:49.551Z,68.33
2017-11-05T20:51:24.059Z,67.68
2017-11-05T20:53:58.587Z,66.80
2017-11-05T20:56:33.067Z,67.51
2017-11-05T20:59:07.596Z,66.89
2017-11-05T21:01:42.110Z,67.79
2017-11-05T21:04:16.519Z,67.79
2017-11-05T21:06:51.619Z,68.04
2017-11-05T21:09:26.406Z,68.81
2017-11-05T21:12:00.867Z,68.68
2017-11-05T21:14:35.470Z,68.60
2017-11-05T21:17:09.853Z,68.38
2017-11-05T21:19:45.933Z,68.11
2017-11-05T21:22:20.457Z,67.57
2017-11-05T21:24:55.082Z,67.00
2017-11-05T21:27:29.579Z,67.04
2017-11-05T21:30:10.105Z,66.34
2017-11-05T21:32:44.287Z,66.37
2017-11-05T21:35:18.687Z,67.17
2017-11-05T21:37:53.291Z,66.49
2017-11-05T21:40:30.557Z,67.36
2017-11-05T21:43:05.613Z,67.53
2017-11-05T21:45:40.067Z,67.21
2017-11-05T21:48:14.586Z,65.97
2017-11-05T21:50:49.158Z,66.68
2017-11-05T21:53:23.746Z,66.38
2017-11-05T21:56:01.297Z,65.95
2017-11-05T21:58:35.770Z,66.12
2017-11-05T22:01:10.159Z,66.13
2017-11-05T22:03:44.830Z,66.07
2017-11-05T22:06:19.235Z,65.25
2017-11-05T22:08:53.827Z,65.41
2017-11-05T22:11:28.423Z,65.56
2017-11-05T22:14:02.925Z,65.49
2017-11-05T22:16:37.372Z,65.11
2017-11-05T22:19:11.916Z,64.84
2017-11-05T22:21:46.317Z,64.63
2017-11-05T22:24:20.835Z,65.05
2017-11-05T22:26:55.287Z,65.33
2017-11-05T22:29:29.883Z,65.08
2017-11-05T22:32:04.329Z,65.17
2017-11-05T22:34:38.910Z,64.42
2017-11-05T22:37:13.598Z,64.10
2017-11-05T22:39:48.251Z,64.29
2017-11-05T22:42:22.789Z,64.61
2017-11-05T22:44:57.399Z,64.58
2017-11-05T22:47:31.935Z,64.56
2017-11-05T22:50:08.567Z,65.19
2017-11-05T22:52:43.426Z,64.99
2017-11-05T22:55:17.882Z,65.27
2017-11-05T22:57:52.534Z,64.88
2017-11-05T23:00:27.010Z,64.58
2017-11-05T23:03:01.658Z,64.70
2017-11-05T23:05:36.054Z,64.86
2017-11-05T23:08:10.455Z,64.71
2017-11-05T23:10:45.523Z,64.70
2017-11-05T23:13:20.090Z,64.47
2017-11-05T23:15:54.578Z,64.60
2017-11-05T23:18:29.027Z,64.50
2017-11-05T23:21:03.556Z,64.44
2017-11-05T23:23:38.060Z,64.47
2017-11-05T23:26:12.474Z,64.07
2017-11-05T23:28:47.058Z,63.73
2017-11-05T23:31:21.679Z,63.87
2017-11-05T23:33:56.063Z,64.14
2017-11-05T23:36:30.490Z,64.43
2017-11-05T23:39:04.511Z,64.33
2017-11-05T23:41:38.887Z,63.99
2017-11-05T23:44:13.561Z,64.01
2017-11-05T23:46:47.978Z,63.66
2017-11-05T23:49:22.569Z,63.29
2017-11-05T23:51:57.083Z,63.59
2017-11-05T23:54:31.562Z,63.73
2017-11-05T23:57:06.121Z,63.94
2017-11-05T23:59:40.779Z,64.20
